APL Sentosa — S6LT5 — position and weather

sailwx.info

Track history (hours):
 
Tides and Currents Weather Stations Pressure Air Temp Water Temp Dewpoint Dewpoint Depression Visibility Wind Speed Wind Dir Waves Ship Positions

APL Sentosa

Last reported at 2018-Jan-12 12:00 UTC. Time now 2018-Jan-19 13:31 UTC.
Position N 40°30' E 159°42'.

Length 369 m; draft 12.3 m.

Type: Ship (hazmat cat A). MMSI: 563251000.

Wind from 340 at 28 knots

Barometer 1020.8 mb
Air temperature 5.0 ° C
Visibility: greater than 5.4 NM
Dewpoint -2.6 ° C
Water temperature 14.0 ° C

Date/timePositionNaut miles runAvg speedWind from/ knotsBaromVisibWave heightAir tempDewpointWater temp
2018-Jan-12 12:00N 40°30' E 159°42'85317.8 340 / 281020.8 5.4 5.0-2.614.0
2018-Jan-10 12:00N 35°42' E 142°42'13322.2 220 / 281018.2 5.4 11.0-0.221.0
2018-Jan-10 06:00N 34°24' E 140°30'   240 / 271018.310.8 10.0-1.721.0
2018-Jan-07 12:02N 24°17' E 118°38'219.2
2018-Jan-07 11:55N 24°16' E 118°36'818.4
2018-Jan-07 11:29N 24°12' E 118°28'918.5
2018-Jan-07 11:01N 24°12' E 118°18'917.2
2018-Jan-07 10:30N 24°19' E 118°12'713.4
2018-Jan-07 10:00N 24°23' E 118°07'611.4
2018-Jan-07 09:31N 24°26' E 118°02'3 0.1
2018-Jan-06 10:27N 24°27' E 117°58'0 0.0
2018-Jan-06 09:59N 24°27' E 117°58'0 1.0
2018-Jan-06 09:30N 24°27' E 117°59'4 7.9
2018-Jan-06 09:00N 24°26' E 118°03'611.4
2018-Jan-06 08:30N 24°22' E 118°08'611.5
2018-Jan-06 08:00N 24°18' E 118°12'613.0
2018-Jan-06 07:30N 24°13' E 118°17'816.4
2018-Jan-06 07:00N 24°05' E 118°19'917.5
2018-Jan-06 06:30N 23°58' E 118°14'247 4.9
2018-Jan-04 03:50N 22°20' E 114°07'1 0.0
2018-Jan-03 07:25N 22°20' E 114°08'  
Track history (hours):
 
Tides and Currents Weather Stations Pressure Air Temp Water Temp Dewpoint Dewpoint Depression Visibility Wind Speed Wind Dir Waves Ship Positions

APL Sentosa

Last reported at 2018-Jan-12 12:00 UTC. Time now 2018-Jan-19 13:31 UTC.
Position N 40°30' E 159°42'.

Length 369 m; draft 12.3 m.

Type: Ship (hazmat cat A). MMSI: 563251000.

Wind from 340 at 28 knots

Barometer 1020.8 mb
Air temperature 5.0 ° C
Visibility: greater than 5.4 NM
Dewpoint -2.6 ° C
Water temperature 14.0 ° C

Date/timePositionNaut miles runAvg speedWind from/ knotsBaromVisibWave heightAir tempDewpointWater temp
2018-Jan-12 12:00N 40°30' E 159°42'85317.8 340 / 281020.8 5.4 5.0-2.614.0
2018-Jan-10 12:00N 35°42' E 142°42'13322.2 220 / 281018.2 5.4 11.0-0.221.0
2018-Jan-10 06:00N 34°24' E 140°30'   240 / 271018.310.8 10.0-1.721.0
2018-Jan-07 12:02N 24°17' E 118°38'219.2
2018-Jan-07 11:55N 24°16' E 118°36'818.4
2018-Jan-07 11:29N 24°12' E 118°28'918.5
2018-Jan-07 11:01N 24°12' E 118°18'917.2
2018-Jan-07 10:30N 24°19' E 118°12'713.4
2018-Jan-07 10:00N 24°23' E 118°07'611.4
2018-Jan-07 09:31N 24°26' E 118°02'3 0.1
2018-Jan-06 10:27N 24°27' E 117°58'0 0.0
2018-Jan-06 09:59N 24°27' E 117°58'0 1.0
2018-Jan-06 09:30N 24°27' E 117°59'4 7.9
2018-Jan-06 09:00N 24°26' E 118°03'611.4
2018-Jan-06 08:30N 24°22' E 118°08'611.5
2018-Jan-06 08:00N 24°18' E 118°12'613.0
2018-Jan-06 07:30N 24°13' E 118°17'816.4
2018-Jan-06 07:00N 24°05' E 118°19'917.5
2018-Jan-06 06:30N 23°58' E 118°14'247 4.9
2018-Jan-04 03:50N 22°20' E 114°07'1 0.0
2018-Jan-03 07:25N 22°20' E 114°08'  

Dump ship's entire track history